sensor_id;sensor_type;location;lat;lon;timestamp;temperature;humidity
4910;DHT22;2470;49.868;8.660;2022-08-25T00:01:21;25.00;51.10
4910;DHT22;2470;49.868;8.660;2022-08-25T00:03:48;25.00;51.30
4910;DHT22;2470;49.868;8.660;2022-08-25T00:06:14;24.90;51.30
4910;DHT22;2470;49.868;8.660;2022-08-25T00:08:41;24.90;51.60
4910;DHT22;2470;49.868;8.660;2022-08-25T00:11:10;24.90;51.90
4910;DHT22;2470;49.868;8.660;2022-08-25T00:13:38;24.90;52.30
4910;DHT22;2470;49.868;8.660;2022-08-25T00:16:06;24.80;52.60
4910;DHT22;2470;49.868;8.660;2022-08-25T00:18:32;24.80;53.00
4910;DHT22;2470;49.868;8.660;2022-08-25T00:20:58;24.80;53.40
4910;DHT22;2470;49.868;8.660;2022-08-25T00:23:23;24.80;53.80
4910;DHT22;2470;49.868;8.660;2022-08-25T00:25:49;24.80;54.30
4910;DHT22;2470;49.868;8.660;2022-08-25T00:28:15;24.80;54.70
4910;DHT22;2470;49.868;8.660;2022-08-25T00:30:42;24.70;54.90
4910;DHT22;2470;49.868;8.660;2022-08-25T00:33:08;24.70;55.80
4910;DHT22;2470;49.868;8.660;2022-08-25T00:35:33;24.70;55.50
4910;DHT22;2470;49.868;8.660;2022-08-25T00:37:59;24.70;55.80
4910;DHT22;2470;49.868;8.660;2022-08-25T00:40:27;24.60;56.00
4910;DHT22;2470;49.868;8.660;2022-08-25T00:42:53;24.70;56.40
4910;DHT22;2470;49.868;8.660;2022-08-25T00:45:19;24.70;56.40
4910;DHT22;2470;49.868;8.660;2022-08-25T00:47:44;24.70;56.60
4910;DHT22;2470;49.868;8.660;2022-08-25T00:50:10;24.70;56.80
4910;DHT22;2470;49.868;8.660;2022-08-25T00:52:48;24.60;56.90
4910;DHT22;2470;49.868;8.660;2022-08-25T00:55:23;24.60;57.10
4910;DHT22;2470;49.868;8.660;2022-08-25T00:58:04;24.60;57.30
4910;DHT22;2470;49.868;8.660;2022-08-25T01:00:35;24.60;57.40
4910;DHT22;2470;49.868;8.660;2022-08-25T01:03:01;24.60;57.60
4910;DHT22;2470;49.868;8.660;2022-08-25T01:05:27;24.60;57.80
4910;DHT22;2470;49.868;8.660;2022-08-25T01:07:55;24.60;58.00
4910;DHT22;2470;49.868;8.660;2022-08-25T01:10:22;24.60;58.20
4910;DHT22;2470;49.868;8.660;2022-08-25T01:12:49;24.60;58.40
4910;DHT22;2470;49.868;8.660;2022-08-25T01:15:15;24.50;58.40
4910;DHT22;2470;49.868;8.660;2022-08-25T01:17:51;24.50;59.30
4910;DHT22;2470;49.868;8.660;2022-08-25T01:20:19;24.50;58.90
4910;DHT22;2470;49.868;8.660;2022-08-25T01:22:46;24.50;59.00
4910;DHT22;2470;49.868;8.660;2022-08-25T01:27:54;24.50;59.30
4910;DHT22;2470;49.868;8.660;2022-08-25T01:30:20;24.50;59.40
4910;DHT22;2470;49.868;8.660;2022-08-25T01:32:46;24.50;59.40
4910;DHT22;2470;49.868;8.660;2022-08-25T01:35:11;24.50;59.60
4910;DHT22;2470;49.868;8.660;2022-08-25T01:37:37;24.50;59.80
4910;DHT22;2470;49.868;8.660;2022-08-25T01:40:04;24.50;59.90
4910;DHT22;2470;49.868;8.660;2022-08-25T01:45:33;24.40;60.10
4910;DHT22;2470;49.868;8.660;2022-08-25T01:47:59;24.40;60.30
4910;DHT22;2470;49.868;8.660;2022-08-25T01:50:26;24.40;60.50
4910;DHT22;2470;49.868;8.660;2022-08-25T01:52:59;24.40;60.70
4910;DHT22;2470;49.868;8.660;2022-08-25T01:55:27;24.40;60.80
4910;DHT22;2470;49.868;8.660;2022-08-25T01:57:53;24.40;61.10
4910;DHT22;2470;49.868;8.660;2022-08-25T02:00:20;24.40;61.10
4910;DHT22;2470;49.868;8.660;2022-08-25T02:02:46;24.40;61.20
4910;DHT22;2470;49.868;8.660;2022-08-25T02:05:13;24.40;61.30
4910;DHT22;2470;49.868;8.660;2022-08-25T02:07:39;24.30;61.40
4910;DHT22;2470;49.868;8.660;2022-08-25T02:10:07;24.30;61.50
4910;DHT22;2470;49.868;8.660;2022-08-25T02:12:33;24.30;61.70
4910;DHT22;2470;49.868;8.660;2022-08-25T02:15:01;24.20;61.80
4910;DHT22;2470;49.868;8.660;2022-08-25T02:17:28;24.20;62.10
4910;DHT22;2470;49.868;8.660;2022-08-25T02:19:53;24.10;62.40
4910;DHT22;2470;49.868;8.660;2022-08-25T02:22:22;24.10;62.80
4910;DHT22;2470;49.868;8.660;2022-08-25T02:24:47;24.10;63.10
4910;DHT22;2470;49.868;8.660;2022-08-25T02:27:13;24.10;63.20
4910;DHT22;2470;49.868;8.660;2022-08-25T02:29:39;24.10;62.90
4910;DHT22;2470;49.868;8.660;2022-08-25T02:32:05;24.10;62.70
4910;DHT22;2470;49.868;8.660;2022-08-25T02:34:31;24.10;62.70
4910;DHT22;2470;49.868;8.660;2022-08-25T02:36:57;24.10;62.70
4910;DHT22;2470;49.868;8.660;2022-08-25T02:39:22;24.10;62.90
4910;DHT22;2470;49.868;8.660;2022-08-25T02:41:48;24.10;63.00
4910;DHT22;2470;49.868;8.660;2022-08-25T02:44:14;24.10;63.10
4910;DHT22;2470;49.868;8.660;2022-08-25T02:46:40;24.00;63.20
4910;DHT22;2470;49.868;8.660;2022-08-25T02:49:06;24.00;63.40
4910;DHT22;2470;49.868;8.660;2022-08-25T02:51:32;23.90;63.40
4910;DHT22;2470;49.868;8.660;2022-08-25T02:54:00;23.90;63.60
4910;DHT22;2470;49.868;8.660;2022-08-25T02:56:27;23.90;63.70
4910;DHT22;2470;49.868;8.660;2022-08-25T02:58:53;23.90;63.80
4910;DHT22;2470;49.868;8.660;2022-08-25T03:01:19;23.90;64.00
4910;DHT22;2470;49.868;8.660;2022-08-25T03:03:46;23.80;64.10
4910;DHT22;2470;49.868;8.660;2022-08-25T03:06:15;23.80;64.20
4910;DHT22;2470;49.868;8.660;2022-08-25T03:08:42;23.80;64.40
4910;DHT22;2470;49.868;8.660;2022-08-25T03:11:08;23.80;64.40
4910;DHT22;2470;49.868;8.660;2022-08-25T03:13:33;23.80;64.70
4910;DHT22;2470;49.868;8.660;2022-08-25T03:16:00;23.80;64.90
4910;DHT22;2470;49.868;8.660;2022-08-25T03:18:27;23.70;65.00
4910;DHT22;2470;49.868;8.660;2022-08-25T03:20:53;23.70;65.20
4910;DHT22;2470;49.868;8.660;2022-08-25T03:23:19;23.70;65.40
4910;DHT22;2470;49.868;8.660;2022-08-25T03:25:44;23.70;65.40
4910;DHT22;2470;49.868;8.660;2022-08-25T03:28:29;23.70;65.40
4910;DHT22;2470;49.868;8.660;2022-08-25T03:31:01;23.70;65.50
4910;DHT22;2470;49.868;8.660;2022-08-25T03:33:28;23.60;65.50
4910;DHT22;2470;49.868;8.660;2022-08-25T03:35:54;23.60;65.60
4910;DHT22;2470;49.868;8.660;2022-08-25T03:38:21;23.60;65.80
4910;DHT22;2470;49.868;8.660;2022-08-25T03:40:48;23.50;65.90
4910;DHT22;2470;49.868;8.660;2022-08-25T03:43:14;23.40;65.90
4910;DHT22;2470;49.868;8.660;2022-08-25T03:45:41;23.40;65.80
4910;DHT22;2470;49.868;8.660;2022-08-25T03:48:08;23.40;65.70
4910;DHT22;2470;49.868;8.660;2022-08-25T03:50:33;23.40;65.90
4910;DHT22;2470;49.868;8.660;2022-08-25T03:53:00;23.30;66.10
4910;DHT22;2470;49.868;8.660;2022-08-25T03:55:26;23.30;66.20
4910;DHT22;2470;49.868;8.660;2022-08-25T03:57:53;23.30;66.40
4910;DHT22;2470;49.868;8.660;2022-08-25T04:00:20;23.30;66.40
4910;DHT22;2470;49.868;8.660;2022-08-25T04:02:46;23.30;66.60
4910;DHT22;2470;49.868;8.660;2022-08-25T04:05:12;23.20;66.50
4910;DHT22;2470;49.868;8.660;2022-08-25T04:07:37;23.20;66.70
4910;DHT22;2470;49.868;8.660;2022-08-25T04:10:05;23.20;66.90
4910;DHT22;2470;49.868;8.660;2022-08-25T04:12:31;23.20;67.00
4910;DHT22;2470;49.868;8.660;2022-08-25T04:14:57;23.10;67.10
4910;DHT22;2470;49.868;8.660;2022-08-25T04:17:23;23.10;67.40
4910;DHT22;2470;49.868;8.660;2022-08-25T04:19:49;23.10;67.60
4910;DHT22;2470;49.868;8.660;2022-08-25T04:22:16;23.00;67.60
4910;DHT22;2470;49.868;8.660;2022-08-25T04:24:41;23.00;67.90
4910;DHT22;2470;49.868;8.660;2022-08-25T04:27:07;23.00;68.10
4910;DHT22;2470;49.868;8.660;2022-08-25T04:29:33;23.00;68.30
4910;DHT22;2470;49.868;8.660;2022-08-25T04:31:58;23.00;68.50
4910;DHT22;2470;49.868;8.660;2022-08-25T04:34:25;22.90;68.60
4910;DHT22;2470;49.868;8.660;2022-08-25T04:36:51;22.90;68.80
4910;DHT22;2470;49.868;8.660;2022-08-25T04:39:18;22.90;69.00
4910;DHT22;2470;49.868;8.660;2022-08-25T04:41:46;22.90;69.20
4910;DHT22;2470;49.868;8.660;2022-08-25T04:44:11;22.90;69.40
4910;DHT22;2470;49.868;8.660;2022-08-25T04:46:37;22.90;69.60
4910;DHT22;2470;49.868;8.660;2022-08-25T04:49:03;22.90;69.90
4910;DHT22;2470;49.868;8.660;2022-08-25T04:51:37;22.90;70.10
4910;DHT22;2470;49.868;8.660;2022-08-25T04:54:07;22.80;70.30
4910;DHT22;2470;49.868;8.660;2022-08-25T04:56:34;22.90;70.50
4910;DHT22;2470;49.868;8.660;2022-08-25T04:59:05;22.90;70.40
4910;DHT22;2470;49.868;8.660;2022-08-25T05:01:32;22.90;70.40
4910;DHT22;2470;49.868;8.660;2022-08-25T05:04:00;22.90;70.50
4910;DHT22;2470;49.868;8.660;2022-08-25T05:06:27;22.90;70.70
4910;DHT22;2470;49.868;8.660;2022-08-25T05:08:53;23.00;70.80
4910;DHT22;2470;49.868;8.660;2022-08-25T05:11:19;23.00;70.90
4910;DHT22;2470;49.868;8.660;2022-08-25T05:13:49;23.00;71.00
4910;DHT22;2470;49.868;8.660;2022-08-25T05:16:15;23.00;71.00
4910;DHT22;2470;49.868;8.660;2022-08-25T05:18:41;23.00;71.00
4910;DHT22;2470;49.868;8.660;2022-08-25T05:21:12;23.10;71.10
4910;DHT22;2470;49.868;8.660;2022-08-25T05:23:39;23.10;71.00
4910;DHT22;2470;49.868;8.660;2022-08-25T05:26:08;23.10;71.00
4910;DHT22;2470;49.868;8.660;2022-08-25T05:28:35;23.20;71.20
4910;DHT22;2470;49.868;8.660;2022-08-25T05:31:02;23.20;71.20
4910;DHT22;2470;49.868;8.660;2022-08-25T05:33:29;23.20;71.20
4910;DHT22;2470;49.868;8.660;2022-08-25T05:35:54;23.30;71.30
4910;DHT22;2470;49.868;8.660;2022-08-25T05:38:20;23.30;71.30
4910;DHT22;2470;49.868;8.660;2022-08-25T05:40:46;23.40;71.30
4910;DHT22;2470;49.868;8.660;2022-08-25T05:43:12;23.40;71.40
4910;DHT22;2470;49.868;8.660;2022-08-25T05:45:39;23.50;71.40
4910;DHT22;2470;49.868;8.660;2022-08-25T05:48:05;23.60;71.50
4910;DHT22;2470;49.868;8.660;2022-08-25T05:50:31;23.60;71.60
4910;DHT22;2470;49.868;8.660;2022-08-25T05:52:56;23.70;71.70
4910;DHT22;2470;49.868;8.660;2022-08-25T05:55:22;23.70;71.90
4910;DHT22;2470;49.868;8.660;2022-08-25T05:57:48;23.70;72.20
4910;DHT22;2470;49.868;8.660;2022-08-25T06:00:14;23.70;72.40
4910;DHT22;2470;49.868;8.660;2022-08-25T06:02:39;23.80;72.60
4910;DHT22;2470;49.868;8.660;2022-08-25T06:05:09;23.80;72.90
4910;DHT22;2470;49.868;8.660;2022-08-25T06:07:35;23.80;73.00
4910;DHT22;2470;49.868;8.660;2022-08-25T06:10:03;23.80;73.30
4910;DHT22;2470;49.868;8.660;2022-08-25T06:12:31;23.80;73.00
4910;DHT22;2470;49.868;8.660;2022-08-25T06:14:57;23.90;73.40
4910;DHT22;2470;49.868;8.660;2022-08-25T06:17:23;23.90;73.70
4910;DHT22;2470;49.868;8.660;2022-08-25T06:19:48;23.90;74.00
4910;DHT22;2470;49.868;8.660;2022-08-25T06:22:14;24.00;74.40
4910;DHT22;2470;49.868;8.660;2022-08-25T06:24:39;24.00;75.20
4910;DHT22;2470;49.868;8.660;2022-08-25T06:27:05;24.10;76.00
4910;DHT22;2470;49.868;8.660;2022-08-25T06:29:30;24.10;76.50
4910;DHT22;2470;49.868;8.660;2022-08-25T06:31:56;24.10;78.20
4910;DHT22;2470;49.868;8.660;2022-08-25T06:34:21;24.20;77.90
4910;DHT22;2470;49.868;8.660;2022-08-25T06:36:47;24.10;78.00
4910;DHT22;2470;49.868;8.660;2022-08-25T06:39:12;24.20;80.00
4910;DHT22;2470;49.868;8.660;2022-08-25T06:41:38;24.20;79.70
4910;DHT22;2470;49.868;8.660;2022-08-25T06:44:04;24.20;80.40
4910;DHT22;2470;49.868;8.660;2022-08-25T06:46:30;24.20;81.40
4910;DHT22;2470;49.868;8.660;2022-08-25T06:48:56;24.20;82.30
4910;DHT22;2470;49.868;8.660;2022-08-25T06:51:23;24.20;82.90
4910;DHT22;2470;49.868;8.660;2022-08-25T06:53:49;24.30;83.10
4910;DHT22;2470;49.868;8.660;2022-08-25T06:56:17;24.40;83.10
4910;DHT22;2470;49.868;8.660;2022-08-25T06:58:43;24.40;83.00
4910;DHT22;2470;49.868;8.660;2022-08-25T07:01:16;24.50;84.10
4910;DHT22;2470;49.868;8.660;2022-08-25T07:03:42;24.50;85.20
4910;DHT22;2470;49.868;8.660;2022-08-25T07:06:09;24.60;85.60
4910;DHT22;2470;49.868;8.660;2022-08-25T07:08:34;24.60;86.10
4910;DHT22;2470;49.868;8.660;2022-08-25T07:11:08;24.70;85.70
4910;DHT22;2470;49.868;8.660;2022-08-25T07:13:35;24.80;85.60
4910;DHT22;2470;49.868;8.660;2022-08-25T07:16:02;24.80;86.40
4910;DHT22;2470;49.868;8.660;2022-08-25T07:18:28;24.80;86.40
4910;DHT22;2470;49.868;8.660;2022-08-25T07:20:54;24.80;86.70
4910;DHT22;2470;49.868;8.660;2022-08-25T07:23:21;24.80;87.20
4910;DHT22;2470;49.868;8.660;2022-08-25T07:25:47;24.90;86.70
4910;DHT22;2470;49.868;8.660;2022-08-25T07:28:13;24.80;87.00
4910;DHT22;2470;49.868;8.660;2022-08-25T07:30:39;25.00;87.20
4910;DHT22;2470;49.868;8.660;2022-08-25T07:33:05;25.00;86.70
4910;DHT22;2470;49.868;8.660;2022-08-25T07:35:30;25.10;86.80
4910;DHT22;2470;49.868;8.660;2022-08-25T07:37:57;25.10;86.40
4910;DHT22;2470;49.868;8.660;2022-08-25T07:40:29;25.10;86.40
4910;DHT22;2470;49.868;8.660;2022-08-25T07:43:01;25.10;86.30
4910;DHT22;2470;49.868;8.660;2022-08-25T07:45:29;25.20;85.30
4910;DHT22;2470;49.868;8.660;2022-08-25T07:48:01;25.20;86.00
4910;DHT22;2470;49.868;8.660;2022-08-25T07:50:28;25.30;86.30
4910;DHT22;2470;49.868;8.660;2022-08-25T07:52:55;25.40;84.70
4910;DHT22;2470;49.868;8.660;2022-08-25T07:55:24;25.50;84.30
4910;DHT22;2470;49.868;8.660;2022-08-25T07:57:51;25.60;85.00
4910;DHT22;2470;49.868;8.660;2022-08-25T08:00:17;25.70;84.80
4910;DHT22;2470;49.868;8.660;2022-08-25T08:02:43;25.70;83.90
4910;DHT22;2470;49.868;8.660;2022-08-25T08:05:10;25.70;83.50
4910;DHT22;2470;49.868;8.660;2022-08-25T08:07:36;25.70;83.80
4910;DHT22;2470;49.868;8.660;2022-08-25T08:10:03;25.80;84.20
4910;DHT22;2470;49.868;8.660;2022-08-25T08:12:29;25.80;84.60
4910;DHT22;2470;49.868;8.660;2022-08-25T08:14:55;25.90;85.50
4910;DHT22;2470;49.868;8.660;2022-08-25T08:17:21;25.90;84.00
4910;DHT22;2470;49.868;8.660;2022-08-25T08:19:47;25.90;84.10
4910;DHT22;2470;49.868;8.660;2022-08-25T08:22:13;26.00;83.20
4910;DHT22;2470;49.868;8.660;2022-08-25T08:24:43;25.90;83.70
4910;DHT22;2470;49.868;8.660;2022-08-25T08:27:10;25.90;84.50
4910;DHT22;2470;49.868;8.660;2022-08-25T08:29:37;26.00;83.50
4910;DHT22;2470;49.868;8.660;2022-08-25T08:32:05;26.00;83.80
4910;DHT22;2470;49.868;8.660;2022-08-25T08:34:32;26.10;83.00
4910;DHT22;2470;49.868;8.660;2022-08-25T08:36:58;26.20;82.40
4910;DHT22;2470;49.868;8.660;2022-08-25T08:39:24;26.30;81.60
4910;DHT22;2470;49.868;8.660;2022-08-25T08:42:28;26.40;81.30
4910;DHT22;2470;49.868;8.660;2022-08-25T08:50:55;26.30;79.90
4910;DHT22;2470;49.868;8.660;2022-08-25T08:53:43;26.30;80.40
4910;DHT22;2470;49.868;8.660;2022-08-25T08:56:14;26.40;79.80
4910;DHT22;2470;49.868;8.660;2022-08-25T09:01:08;26.40;78.50
4910;DHT22;2470;49.868;8.660;2022-08-25T09:03:41;26.50;78.90
4910;DHT22;2470;49.868;8.660;2022-08-25T09:06:23;26.50;76.40
4910;DHT22;2470;49.868;8.660;2022-08-25T09:08:49;26.60;76.50
4910;DHT22;2470;49.868;8.660;2022-08-25T09:14:25;26.70;76.00
4910;DHT22;2470;49.868;8.660;2022-08-25T09:20:06;26.90;75.30
4910;DHT22;2470;49.868;8.660;2022-08-25T09:25:27;27.00;72.90
4910;DHT22;2470;49.868;8.660;2022-08-25T09:28:36;27.00;72.90
4910;DHT22;2470;49.868;8.660;2022-08-25T09:31:18;27.00;72.00
4910;DHT22;2470;49.868;8.660;2022-08-25T09:33:46;27.10;71.70
4910;DHT22;2470;49.868;8.660;2022-08-25T09:36:11;27.20;72.40
4910;DHT22;2470;49.868;8.660;2022-08-25T09:38:37;27.20;72.00
4910;DHT22;2470;49.868;8.660;2022-08-25T09:41:03;27.20;71.90
4910;DHT22;2470;49.868;8.660;2022-08-25T09:43:39;27.30;70.90
4910;DHT22;2470;49.868;8.660;2022-08-25T09:46:26;27.40;69.80
4910;DHT22;2470;49.868;8.660;2022-08-25T09:48:57;27.50;68.90
4910;DHT22;2470;49.868;8.660;2022-08-25T09:51:29;27.60;68.10
4910;DHT22;2470;49.868;8.660;2022-08-25T09:56:27;27.70;68.40
4910;DHT22;2470;49.868;8.660;2022-08-25T09:58:54;27.60;68.80
4910;DHT22;2470;49.868;8.660;2022-08-25T10:01:22;27.70;67.80
4910;DHT22;2470;49.868;8.660;2022-08-25T10:04:04;27.70;67.70
4910;DHT22;2470;49.868;8.660;2022-08-25T10:06:35;27.80;67.10
4910;DHT22;2470;49.868;8.660;2022-08-25T10:09:07;27.80;67.60
4910;DHT22;2470;49.868;8.660;2022-08-25T10:11:44;27.80;68.00
4910;DHT22;2470;49.868;8.660;2022-08-25T10:14:15;27.80;67.80
4910;DHT22;2470;49.868;8.660;2022-08-25T10:16:41;27.90;67.60
4910;DHT22;2470;49.868;8.660;2022-08-25T10:19:10;28.00;66.80
4910;DHT22;2470;49.868;8.660;2022-08-25T10:21:39;28.00;65.60
4910;DHT22;2470;49.868;8.660;2022-08-25T10:24:05;28.00;65.80
4910;DHT22;2470;49.868;8.660;2022-08-25T10:31:49;28.40;64.00
4910;DHT22;2470;49.868;8.660;2022-08-25T10:34:54;28.30;63.90
4910;DHT22;2470;49.868;8.660;2022-08-25T10:37:45;28.40;63.70
4910;DHT22;2470;49.868;8.660;2022-08-25T10:45:50;28.70;60.60
4910;DHT22;2470;49.868;8.660;2022-08-25T10:49:11;28.60;59.90
4910;DHT22;2470;49.868;8.660;2022-08-25T10:51:57;28.60;59.70
4910;DHT22;2470;49.868;8.660;2022-08-25T10:54:27;28.70;59.50
4910;DHT22;2470;49.868;8.660;2022-08-25T10:57:21;28.70;60.40
4910;DHT22;2470;49.868;8.660;2022-08-25T11:05:40;29.10;57.70
4910;DHT22;2470;49.868;8.660;2022-08-25T11:08:17;29.10;58.00
4910;DHT22;2470;49.868;8.660;2022-08-25T11:10:53;29.20;59.10
4910;DHT22;2470;49.868;8.660;2022-08-25T11:16:11;29.30;59.00
4910;DHT22;2470;49.868;8.660;2022-08-25T11:18:45;29.40;58.50
4910;DHT22;2470;49.868;8.660;2022-08-25T11:21:16;29.50;58.30
4910;DHT22;2470;49.868;8.660;2022-08-25T11:23:49;29.60;58.20
4910;DHT22;2470;49.868;8.660;2022-08-25T11:26:24;29.70;57.70
4910;DHT22;2470;49.868;8.660;2022-08-25T11:31:37;29.90;57.60
4910;DHT22;2470;49.868;8.660;2022-08-25T11:34:03;30.00;56.20
4910;DHT22;2470;49.868;8.660;2022-08-25T11:36:37;30.10;55.10
4910;DHT22;2470;49.868;8.660;2022-08-25T11:48:22;30.20;55.20
4910;DHT22;2470;49.868;8.660;2022-08-25T11:51:30;30.40;55.50
4910;DHT22;2470;49.868;8.660;2022-08-25T11:54:28;30.80;53.60
4910;DHT22;2470;49.868;8.660;2022-08-25T11:57:05;30.90;53.60
4910;DHT22;2470;49.868;8.660;2022-08-25T12:02:35;31.00;53.40
4910;DHT22;2470;49.868;8.660;2022-08-25T12:11:03;31.30;54.00
4910;DHT22;2470;49.868;8.660;2022-08-25T12:13:49;31.50;54.60
4910;DHT22;2470;49.868;8.660;2022-08-25T12:21:50;31.90;52.60
4910;DHT22;2470;49.868;8.660;2022-08-25T12:24:20;32.00;52.30
4910;DHT22;2470;49.868;8.660;2022-08-25T12:27:00;31.90;52.50
4910;DHT22;2470;49.868;8.660;2022-08-25T12:32:37;32.40;51.60
4910;DHT22;2470;49.868;8.660;2022-08-25T12:35:26;33.10;52.10
4910;DHT22;2470;49.868;8.660;2022-08-25T12:38:13;33.70;49.30
4910;DHT22;2470;49.868;8.660;2022-08-25T12:43:27;33.80;48.70
4910;DHT22;2470;49.868;8.660;2022-08-25T12:51:55;35.40;48.00
4910;DHT22;2470;49.868;8.660;2022-08-25T12:57:03;38.30;43.30
4910;DHT22;2470;49.868;8.660;2022-08-25T12:59:37;39.50;40.30
4910;DHT22;2470;49.868;8.660;2022-08-25T13:16:01;46.30;34.50
4910;DHT22;2470;49.868;8.660;2022-08-25T13:18:30;47.90;32.20
4910;DHT22;2470;49.868;8.660;2022-08-25T13:21:03;49.00;30.90
4910;DHT22;2470;49.868;8.660;2022-08-25T13:23:34;49.80;29.30
4910;DHT22;2470;49.868;8.660;2022-08-25T13:26:01;50.50;28.40
4910;DHT22;2470;49.868;8.660;2022-08-25T13:28:30;51.20;28.70
4910;DHT22;2470;49.868;8.660;2022-08-25T13:31:18;51.80;27.60
4910;DHT22;2470;49.868;8.660;2022-08-25T13:33:55;51.90;27.70
4910;DHT22;2470;49.868;8.660;2022-08-25T13:36:23;51.70;27.60
4910;DHT22;2470;49.868;8.660;2022-08-25T13:39:14;51.20;27.30
4910;DHT22;2470;49.868;8.660;2022-08-25T13:42:00;51.70;27.20
4910;DHT22;2470;49.868;8.660;2022-08-25T13:44:30;52.40;26.70
4910;DHT22;2470;49.868;8.660;2022-08-25T13:47:23;52.90;26.70
4910;DHT22;2470;49.868;8.660;2022-08-25T13:52:50;53.80;25.80
4910;DHT22;2470;49.868;8.660;2022-08-25T13:55:26;54.20;25.60
4910;DHT22;2470;49.868;8.660;2022-08-25T13:57:53;54.50;25.40
4910;DHT22;2470;49.868;8.660;2022-08-25T14:00:31;54.90;24.70
4910;DHT22;2470;49.868;8.660;2022-08-25T14:03:00;54.80;24.80
4910;DHT22;2470;49.868;8.660;2022-08-25T14:08:00;54.20;25.30
4910;DHT22;2470;49.868;8.660;2022-08-25T14:10:34;54.30;25.00
4910;DHT22;2470;49.868;8.660;2022-08-25T14:13:09;54.20;25.20
4910;DHT22;2470;49.868;8.660;2022-08-25T14:15:36;54.50;24.30
4910;DHT22;2470;49.868;8.660;2022-08-25T14:18:21;54.90;23.90
4910;DHT22;2470;49.868;8.660;2022-08-25T14:20:50;55.10;24.30
4910;DHT22;2470;49.868;8.660;2022-08-25T14:23:22;55.50;23.60
4910;DHT22;2470;49.868;8.660;2022-08-25T14:25:50;55.70;23.70
4910;DHT22;2470;49.868;8.660;2022-08-25T14:28:19;55.80;23.40
4910;DHT22;2470;49.868;8.660;2022-08-25T14:30:51;55.90;23.30
4910;DHT22;2470;49.868;8.660;2022-08-25T14:33:20;55.60;23.20
4910;DHT22;2470;49.868;8.660;2022-08-25T14:35:49;55.40;23.40
4910;DHT22;2470;49.868;8.660;2022-08-25T14:38:16;55.10;23.70
4910;DHT22;2470;49.868;8.660;2022-08-25T14:40:42;55.00;23.60
4910;DHT22;2470;49.868;8.660;2022-08-25T14:43:09;55.10;23.60
4910;DHT22;2470;49.868;8.660;2022-08-25T14:45:36;55.10;23.40
4910;DHT22;2470;49.868;8.660;2022-08-25T14:48:07;53.50;23.40
4910;DHT22;2470;49.868;8.660;2022-08-25T14:50:33;50.70;24.70
4910;DHT22;2470;49.868;8.660;2022-08-25T14:53:00;49.00;25.60
4910;DHT22;2470;49.868;8.660;2022-08-25T14:55:26;48.10;26.40
4910;DHT22;2470;49.868;8.660;2022-08-25T14:57:51;47.60;26.70
4910;DHT22;2470;49.868;8.660;2022-08-25T15:00:17;46.10;27.10
4910;DHT22;2470;49.868;8.660;2022-08-25T15:02:45;44.30;27.90
4910;DHT22;2470;49.868;8.660;2022-08-25T15:05:19;42.70;29.00
4910;DHT22;2470;49.868;8.660;2022-08-25T15:07:46;41.20;29.90
4910;DHT22;2470;49.868;8.660;2022-08-25T15:10:31;40.00;31.00
4910;DHT22;2470;49.868;8.660;2022-08-25T15:12:56;38.80;32.50
4910;DHT22;2470;49.868;8.660;2022-08-25T15:15:22;38.10;33.00
4910;DHT22;2470;49.868;8.660;2022-08-25T15:17:50;37.50;33.50
4910;DHT22;2470;49.868;8.660;2022-08-25T15:20:16;36.90;34.50
4910;DHT22;2470;49.868;8.660;2022-08-25T15:22:42;36.50;35.30
4910;DHT22;2470;49.868;8.660;2022-08-25T15:25:09;36.20;35.60
4910;DHT22;2470;49.868;8.660;2022-08-25T15:27:35;35.90;36.30
4910;DHT22;2470;49.868;8.660;2022-08-25T15:30:02;35.70;36.70
4910;DHT22;2470;49.868;8.660;2022-08-25T15:32:27;35.50;36.80
4910;DHT22;2470;49.868;8.660;2022-08-25T15:34:53;35.30;37.70
4910;DHT22;2470;49.868;8.660;2022-08-25T15:37:18;35.10;38.00
4910;DHT22;2470;49.868;8.660;2022-08-25T15:39:44;34.90;38.40
4910;DHT22;2470;49.868;8.660;2022-08-25T15:42:11;34.80;38.40
4910;DHT22;2470;49.868;8.660;2022-08-25T15:44:38;34.70;38.30
4910;DHT22;2470;49.868;8.660;2022-08-25T15:47:04;34.50;38.90
4910;DHT22;2470;49.868;8.660;2022-08-25T15:49:29;34.50;38.60
4910;DHT22;2470;49.868;8.660;2022-08-25T15:51:56;34.30;39.10
4910;DHT22;2470;49.868;8.660;2022-08-25T15:54:23;34.20;39.40
4910;DHT22;2470;49.868;8.660;2022-08-25T15:56:49;34.00;39.20
4910;DHT22;2470;49.868;8.660;2022-08-25T15:59:15;33.90;39.50
4910;DHT22;2470;49.868;8.660;2022-08-25T16:01:41;33.70;39.90
4910;DHT22;2470;49.868;8.660;2022-08-25T16:04:08;33.70;40.00
4910;DHT22;2470;49.868;8.660;2022-08-25T16:06:34;33.60;40.10
4910;DHT22;2470;49.868;8.660;2022-08-25T16:09:00;33.50;40.50
4910;DHT22;2470;49.868;8.660;2022-08-25T16:11:28;33.40;41.00
4910;DHT22;2470;49.868;8.660;2022-08-25T16:13:55;33.30;41.30
4910;DHT22;2470;49.868;8.660;2022-08-25T16:16:23;33.20;41.20
4910;DHT22;2470;49.868;8.660;2022-08-25T16:18:49;33.10;41.50
4910;DHT22;2470;49.868;8.660;2022-08-25T16:21:20;33.10;41.70
4910;DHT22;2470;49.868;8.660;2022-08-25T16:23:48;33.00;41.80
4910;DHT22;2470;49.868;8.660;2022-08-25T16:26:14;33.00;41.90
4910;DHT22;2470;49.868;8.660;2022-08-25T16:28:41;33.00;42.20
4910;DHT22;2470;49.868;8.660;2022-08-25T16:31:12;33.00;42.00
4910;DHT22;2470;49.868;8.660;2022-08-25T16:33:38;33.10;41.40
4910;DHT22;2470;49.868;8.660;2022-08-25T16:36:24;33.30;41.20
4910;DHT22;2470;49.868;8.660;2022-08-25T16:38:51;33.60;41.20
4910;DHT22;2470;49.868;8.660;2022-08-25T16:41:25;33.40;41.40
4910;DHT22;2470;49.868;8.660;2022-08-25T16:43:52;33.20;41.70
4910;DHT22;2470;49.868;8.660;2022-08-25T16:46:19;33.10;42.00
4910;DHT22;2470;49.868;8.660;2022-08-25T16:48:45;34.00;41.80
4910;DHT22;2470;49.868;8.660;2022-08-25T16:51:14;34.60;40.30
4910;DHT22;2470;49.868;8.660;2022-08-25T16:53:40;34.50;40.50
4910;DHT22;2470;49.868;8.660;2022-08-25T16:56:25;34.10;40.30
4910;DHT22;2470;49.868;8.660;2022-08-25T16:58:58;33.60;41.10
4910;DHT22;2470;49.868;8.660;2022-08-25T17:01:26;33.20;41.90
4910;DHT22;2470;49.868;8.660;2022-08-25T17:03:53;32.90;42.10
4910;DHT22;2470;49.868;8.660;2022-08-25T17:06:19;33.00;42.20
4910;DHT22;2470;49.868;8.660;2022-08-25T17:08:45;32.80;42.50
4910;DHT22;2470;49.868;8.660;2022-08-25T17:11:17;32.70;42.60
4910;DHT22;2470;49.868;8.660;2022-08-25T17:13:46;32.60;42.60
4910;DHT22;2470;49.868;8.660;2022-08-25T17:16:12;32.60;42.70
4910;DHT22;2470;49.868;8.660;2022-08-25T17:18:38;32.50;42.70
4910;DHT22;2470;49.868;8.660;2022-08-25T17:21:07;32.80;42.60
4910;DHT22;2470;49.868;8.660;2022-08-25T17:23:33;33.10;42.40
4910;DHT22;2470;49.868;8.660;2022-08-25T17:26:00;33.00;42.10
4910;DHT22;2470;49.868;8.660;2022-08-25T17:28:26;32.80;42.40
4910;DHT22;2470;49.868;8.660;2022-08-25T17:30:52;32.60;42.70
4910;DHT22;2470;49.868;8.660;2022-08-25T17:33:18;32.50;42.90
4910;DHT22;2470;49.868;8.660;2022-08-25T17:35:46;32.30;43.50
4910;DHT22;2470;49.868;8.660;2022-08-25T17:38:14;32.10;43.60
4910;DHT22;2470;49.868;8.660;2022-08-25T17:40:40;32.10;43.90
4910;DHT22;2470;49.868;8.660;2022-08-25T17:43:06;31.90;43.90
4910;DHT22;2470;49.868;8.660;2022-08-25T17:45:32;31.80;44.00
4910;DHT22;2470;49.868;8.660;2022-08-25T17:47:58;31.70;44.30
4910;DHT22;2470;49.868;8.660;2022-08-25T17:50:24;31.50;44.60
4910;DHT22;2470;49.868;8.660;2022-08-25T17:52:51;31.40;44.80
4910;DHT22;2470;49.868;8.660;2022-08-25T17:55:17;31.40;45.00
4910;DHT22;2470;49.868;8.660;2022-08-25T17:57:49;31.20;45.30
4910;DHT22;2470;49.868;8.660;2022-08-25T18:00:17;31.10;45.50